Time;durP1;ratioP1;P1;durP2;ratioP2;P2;SDS_P1;SDS_P2;PMS_P1;PMS_P2;Temp;Humidity;BMP_temperature;BMP_pressure;BME280_temperature;BME280_humidity;BME280_pressure;Samples;Min_cycle;Max_cycle;Signal;HPM_P1;HPM_P2
2022/12/31 00:02:16;;;;;;;;;;;10.40;99.90;;;;;;4840225;29;20007;-72
2022/12/31 00:04:42;;;;;;;;;;;10.40;99.90;;;;;;4853632;29;19935;-72
2022/12/31 00:07:08;;;;;;;;;;;10.40;99.90;;;;;;4854110;29;20079;-72
2022/12/31 00:09:33;;;;;;;;;;;10.40;99.90;;;;;;4814853;29;19924;-73
2022/12/31 00:11:59;;;;;;;;;;;10.40;99.90;;;;;;4849215;29;19931;-73
2022/12/31 00:14:24;;;;;;;;;;;10.40;99.90;;;;;;4833826;29;19968;-73
2022/12/31 00:16:50;;;;;;;;;;;10.50;99.90;;;;;;4852434;29;20376;-73
2022/12/31 00:19:15;;;;;;;;;;;10.50;99.90;;;;;;4852176;29;20027;-73
2022/12/31 00:21:42;;;;;;;;;;;10.50;99.90;;;;;;4851640;29;19928;-72
2022/12/31 00:24:09;;;;;;;;;;;10.50;99.90;;;;;;4836142;29;19928;-72
2022/12/31 00:26:35;;;;;;;;;;;10.50;99.90;;;;;;4836433;29;19943;-72
2022/12/31 00:29:02;;;;;;;;;;;10.50;99.90;;;;;;4848320;29;20214;-72
2022/12/31 00:31:31;;;;;;;;;;;10.50;99.90;;;;;;4850755;29;19928;-73
2022/12/31 00:33:57;;;;;;;;;;;10.50;99.90;;;;;;4851444;29;19932;-73
2022/12/31 00:36:25;;;;;;;;;;;10.50;99.90;;;;;;4850447;29;19987;-73
2022/12/31 00:38:52;;;;;;;;;;;10.50;99.90;;;;;;4849808;29;19932;-73
2022/12/31 00:41:18;;;;;;;;;;;10.50;99.90;;;;;;4851796;29;19981;-73
2022/12/31 00:43:44;;;;;;;;;;;10.50;99.90;;;;;;4849895;29;19965;-73
2022/12/31 00:46:10;;;;;;;;;;;10.50;99.90;;;;;;4852144;29;19928;-72
2022/12/31 00:48:36;;;;;;;;;;;10.50;99.90;;;;;;4851723;29;20267;-72
2022/12/31 00:51:03;;;;;;;;;;;10.50;99.90;;;;;;4853581;29;19924;-73
2022/12/31 00:53:28;;;;;;;;;;;10.50;99.90;;;;;;4838581;29;20409;-73
2022/12/31 00:56:09;;;;;;;;;;;10.50;99.90;;;;;;4852896;29;19935;-73
2022/12/31 00:58:34;;;;;;;;;;;10.40;99.90;;;;;;4853227;29;20226;-72
2022/12/31 01:01:07;;;;;;;;;;;10.40;99.90;;;;;;4853406;29;20009;-73
2022/12/31 01:03:32;;;;;;;;;;;10.40;99.90;;;;;;4853570;29;19979;-73
2022/12/31 01:05:58;;;;;;;;;;;10.30;99.90;;;;;;4853049;29;19932;-73
2022/12/31 01:08:24;;;;;;;;;;;10.30;99.90;;;;;;4853620;29;19928;-73
2022/12/31 01:13:34;;;;;;;;;;;10.30;99.90;;;;;;4846755;29;19935;-73
2022/12/31 01:16:09;;;;;;;;;;;10.30;99.90;;;;;;4829032;29;20401;-72
2022/12/31 01:18:35;;;;;;;;;;;10.30;99.90;;;;;;4853195;29;20047;-72
2022/12/31 01:21:02;;;;;;;;;;;10.30;99.90;;;;;;4851870;29;19925;-72
2022/12/31 01:23:28;;;;;;;;;;;10.30;99.90;;;;;;4849348;29;19924;-72
2022/12/31 01:25:54;;;;;;;;;;;10.20;99.90;;;;;;4835154;29;19932;-72
2022/12/31 01:28:19;;;;;;;;;;;10.20;99.90;;;;;;4837503;29;19994;-72
2022/12/31 01:30:45;;;;;;;;;;;10.20;99.90;;;;;;4851683;29;19931;-72
2022/12/31 01:33:11;;;;;;;;;;;10.20;99.90;;;;;;4853155;29;19988;-72
2022/12/31 01:35:36;;;;;;;;;;;10.20;99.90;;;;;;4852196;29;19928;-73
2022/12/31 01:38:02;;;;;;;;;;;10.20;99.90;;;;;;4832210;29;19928;-73
2022/12/31 01:40:27;;;;;;;;;;;10.10;99.90;;;;;;4837631;29;19924;-73
2022/12/31 01:42:56;;;;;;;;;;;10.10;99.90;;;;;;4837637;29;19930;-73
2022/12/31 01:45:22;;;;;;;;;;;10.10;99.90;;;;;;4852122;29;20239;-73
2022/12/31 01:47:50;;;;;;;;;;;10.00;99.90;;;;;;4853081;29;19936;-73
2022/12/31 01:50:21;;;;;;;;;;;10.00;99.90;;;;;;4836745;29;19980;-72
2022/12/31 01:52:49;;;;;;;;;;;9.90;99.90;;;;;;4852862;29;19992;-72
2022/12/31 01:55:22;;;;;;;;;;;9.90;99.90;;;;;;4837194;29;20380;-72
2022/12/31 01:57:50;;;;;;;;;;;9.90;99.90;;;;;;4840319;29;19934;-72
2022/12/31 02:00:16;;;;;;;;;;;9.90;99.90;;;;;;4855067;29;19949;-72
2022/12/31 02:02:41;;;;;;;;;;;9.80;99.90;;;;;;4855903;29;20019;-72
2022/12/31 02:05:28;;;;;;;;;;;9.80;99.90;;;;;;4839455;29;19931;-72
2022/12/31 02:07:53;;;;;;;;;;;9.80;99.90;;;;;;4855564;29;20384;-72
2022/12/31 02:10:19;;;;;;;;;;;9.80;99.90;;;;;;4859685;29;19975;-72
2022/12/31 02:12:45;;;;;;;;;;;9.70;99.90;;;;;;4855848;29;19932;-73
2022/12/31 02:15:11;;;;;;;;;;;9.70;99.90;;;;;;4839427;29;19936;-73
2022/12/31 02:18:01;;;;;;;;;;;9.70;99.90;;;;;;4855457;29;19928;-73
2022/12/31 02:20:35;;;;;;;;;;;9.70;99.90;;;;;;4855274;29;19924;-72
2022/12/31 02:23:20;;;;;;;;;;;9.70;99.90;;;;;;4851133;29;19939;-72
2022/12/31 02:26:01;;;;;;;;;;;9.60;99.90;;;;;;4839541;29;19931;-72
2022/12/31 02:28:35;;;;;;;;;;;9.60;99.90;;;;;;4858698;29;19931;-72
2022/12/31 02:31:07;;;;;;;;;;;9.50;99.90;;;;;;4840098;29;19935;-72
2022/12/31 02:33:41;;;;;;;;;;;9.50;99.90;;;;;;4854606;29;19951;-73
2022/12/31 02:36:27;;;;;;;;;;;9.40;99.90;;;;;;4839536;29;19927;-73
2022/12/31 02:38:53;;;;;;;;;;;9.40;99.90;;;;;;4855168;29;19935;-73
2022/12/31 02:44:26;;;;;;;;;;;9.20;99.90;;;;;;4855093;29;20392;-73
2022/12/31 02:46:54;;;;;;;;;;;9.20;99.90;;;;;;4835654;29;19938;-73
2022/12/31 02:49:22;;;;;;;;;;;9.20;99.90;;;;;;4854674;29;19928;-73
2022/12/31 02:51:53;;;;;;;;;;;9.10;99.90;;;;;;4855259;29;20432;-74
2022/12/31 02:54:35;;;;;;;;;;;9.10;99.90;;;;;;4839196;29;19923;-73
2022/12/31 02:57:33;;;;;;;;;;;9.10;99.90;;;;;;4851858;29;19951;-73
2022/12/31 03:02:51;;;;;;;;;;;9.00;99.90;;;;;;4845593;29;19932;-72
2022/12/31 03:05:18;;;;;;;;;;;9.00;99.90;;;;;;4846722;29;19976;-72
2022/12/31 03:07:44;;;;;;;;;;;9.00;99.90;;;;;;4852277;29;19985;-72
2022/12/31 03:10:10;;;;;;;;;;;9.00;99.90;;;;;;4846191;29;19960;-72
2022/12/31 03:12:45;;;;;;;;;;;9.00;99.90;;;;;;4833151;29;19935;-72
2022/12/31 03:15:18;;;;;;;;;;;9.10;99.90;;;;;;4851524;29;19932;-73
2022/12/31 03:17:47;;;;;;;;;;;9.10;99.90;;;;;;4851959;29;19925;-73
2022/12/31 03:22:57;;;;;;;;;;;9.10;99.90;;;;;;4849186;29;19928;-73
2022/12/31 03:25:32;;;;;;;;;;;9.10;99.90;;;;;;4854356;29;19928;-73
2022/12/31 03:27:58;;;;;;;;;;;9.10;99.90;;;;;;4855294;29;20314;-73
2022/12/31 03:30:24;;;;;;;;;;;9.10;99.90;;;;;;4839231;29;19928;-73
2022/12/31 03:32:50;;;;;;;;;;;9.10;99.90;;;;;;4838004;29;20282;-73
2022/12/31 03:35:16;;;;;;;;;;;9.10;99.90;;;;;;4854594;29;20014;-73
2022/12/31 03:37:42;;;;;;;;;;;9.10;99.90;;;;;;4833763;29;20010;-73
2022/12/31 03:40:09;;;;;;;;;;;9.10;99.90;;;;;;4839434;29;20449;-73
2022/12/31 03:42:35;;;;;;;;;;;9.10;99.90;;;;;;4854801;29;19974;-73
2022/12/31 03:45:00;;;;;;;;;;;9.10;99.90;;;;;;4854853;29;19975;-73
2022/12/31 03:47:26;;;;;;;;;;;9.00;99.90;;;;;;4854737;29;19928;-73
2022/12/31 03:49:51;;;;;;;;;;;9.10;99.90;;;;;;4854903;29;20011;-73
2022/12/31 03:52:17;;;;;;;;;;;9.00;99.90;;;;;;4838744;29;19928;-72
2022/12/31 03:54:43;;;;;;;;;;;9.10;99.90;;;;;;4845991;29;20027;-72
2022/12/31 03:57:08;;;;;;;;;;;9.00;99.90;;;;;;4854178;29;19932;-72
2022/12/31 03:59:34;;;;;;;;;;;9.10;99.90;;;;;;4854781;29;20336;-72
2022/12/31 04:02:00;;;;;;;;;;;9.00;99.90;;;;;;4854153;29;19924;-72
2022/12/31 04:04:25;;;;;;;;;;;9.10;99.90;;;;;;4830511;29;20444;-72
2022/12/31 04:06:51;;;;;;;;;;;9.10;99.90;;;;;;4854251;29;19936;-72
2022/12/31 04:09:16;;;;;;;;;;;9.10;99.90;;;;;;4855028;29;20312;-72
2022/12/31 04:11:42;;;;;;;;;;;9.00;99.90;;;;;;4846168;29;19924;-72
2022/12/31 04:14:07;;;;;;;;;;;9.10;99.90;;;;;;4820833;29;20024;-72
2022/12/31 04:16:33;;;;;;;;;;;9.10;99.90;;;;;;4820515;29;19936;-72
2022/12/31 04:18:59;;;;;;;;;;;9.10;99.90;;;;;;4847490;29;19928;-72
2022/12/31 04:21:24;;;;;;;;;;;9.10;99.90;;;;;;4835831;29;20410;-72
2022/12/31 04:23:50;;;;;;;;;;;9.00;99.90;;;;;;4832613;29;19955;-72
2022/12/31 04:26:16;;;;;;;;;;;9.10;99.90;;;;;;4819648;29;19936;-72
2022/12/31 04:28:41;;;;;;;;;;;9.00;99.90;;;;;;4835728;29;19980;-72
2022/12/31 04:31:07;;;;;;;;;;;9.00;99.90;;;;;;4854274;29;20304;-72
2022/12/31 04:33:33;;;;;;;;;;;9.00;99.90;;;;;;4852307;29;20433;-72
2022/12/31 04:36:02;;;;;;;;;;;9.00;99.90;;;;;;4850739;29;20015;-72
2022/12/31 04:38:30;;;;;;;;;;;9.00;99.90;;;;;;4831705;29;20376;-72
2022/12/31 04:43:40;;;;;;;;;;;8.90;99.90;;;;;;4840629;29;19924;-72
2022/12/31 04:46:06;;;;;;;;;;;8.90;99.90;;;;;;4853368;29;19952;-73
2022/12/31 04:48:34;;;;;;;;;;;8.90;99.90;;;;;;4851770;29;19928;-73
2022/12/31 04:51:00;;;;;;;;;;;8.90;99.90;;;;;;4850952;29;19925;-73
2022/12/31 04:53:26;;;;;;;;;;;8.90;99.90;;;;;;4852324;29;19925;-73
2022/12/31 04:55:51;;;;;;;;;;;8.90;99.90;;;;;;4855377;29;19997;-72
2022/12/31 04:58:17;;;;;;;;;;;8.90;99.90;;;;;;4841299;29;19930;-72
2022/12/31 05:00:44;;;;;;;;;;;8.80;99.90;;;;;;4854157;29;19924;-72
2022/12/31 05:03:13;;;;;;;;;;;8.80;99.90;;;;;;4856531;29;19927;-72
2022/12/31 05:05:41;;;;;;;;;;;8.80;99.90;;;;;;4855726;29;19934;-74
2022/12/31 05:08:07;;;;;;;;;;;8.80;99.90;;;;;;4841157;29;19927;-73
2022/12/31 05:10:33;;;;;;;;;;;8.80;99.90;;;;;;4839019;29;20410;-73
2022/12/31 05:12:58;;;;;;;;;;;8.80;99.90;;;;;;4839539;29;20032;-73
2022/12/31 05:15:24;;;;;;;;;;;8.80;99.90;;;;;;4840001;29;20396;-73
2022/12/31 05:17:49;;;;;;;;;;;8.80;99.90;;;;;;4856584;29;19930;-73
2022/12/31 05:20:15;;;;;;;;;;;8.80;99.90;;;;;;4856476;29;20085;-73
2022/12/31 05:22:40;;;;;;;;;;;8.80;99.90;;;;;;4856329;29;19935;-73
2022/12/31 05:25:06;;;;;;;;;;;8.90;99.90;;;;;;4855561;29;19935;-73
2022/12/31 05:27:32;;;;;;;;;;;9.00;99.90;;;;;;4840793;29;19986;-73
2022/12/31 05:29:58;;;;;;;;;;;9.00;99.90;;;;;;4856470;29;19927;-73
2022/12/31 05:32:23;;;;;;;;;;;9.00;99.90;;;;;;4855905;29;19924;-73
2022/12/31 05:34:49;;;;;;;;;;;9.10;99.90;;;;;;4839569;29;20293;-73
2022/12/31 05:37:14;;;;;;;;;;;9.10;99.90;;;;;;4856396;29;19924;-73
2022/12/31 05:39:40;;;;;;;;;;;9.10;99.90;;;;;;4856140;29;20365;-73
2022/12/31 05:42:05;;;;;;;;;;;9.20;99.90;;;;;;4857388;29;20219;-73
2022/12/31 05:44:31;;;;;;;;;;;9.20;99.90;;;;;;4839962;29;20115;-73
2022/12/31 05:46:57;;;;;;;;;;;9.20;99.90;;;;;;4840686;29;20049;-73
2022/12/31 05:49:22;;;;;;;;;;;9.10;99.90;;;;;;4854610;29;20304;-73
2022/12/31 05:51:48;;;;;;;;;;;9.10;99.90;;;;;;4855887;29;19927;-73
2022/12/31 05:54:13;;;;;;;;;;;9.10;99.90;;;;;;4839628;29;19927;-73
2022/12/31 05:56:39;;;;;;;;;;;9.10;99.90;;;;;;4854597;29;20369;-74
2022/12/31 05:59:04;;;;;;;;;;;9.10;99.90;;;;;;4855630;29;19927;-74
2022/12/31 06:01:30;;;;;;;;;;;9.10;99.90;;;;;;4855998;29;19935;-74
2022/12/31 06:03:56;;;;;;;;;;;9.10;99.90;;;;;;4855590;29;20044;-74
2022/12/31 06:06:21;;;;;;;;;;;9.10;99.90;;;;;;4839236;29;19932;-74
2022/12/31 06:08:50;;;;;;;;;;;9.10;99.90;;;;;;4855712;29;20380;-74
2022/12/31 06:11:16;;;;;;;;;;;9.10;99.90;;;;;;4852111;29;19975;-74
2022/12/31 06:13:43;;;;;;;;;;;9.00;99.90;;;;;;4837942;29;20408;-74
2022/12/31 06:16:09;;;;;;;;;;;9.00;99.90;;;;;;4854817;29;19950;-74
2022/12/31 06:18:35;;;;;;;;;;;9.10;99.90;;;;;;4855523;29;19983;-74
2022/12/31 06:21:00;;;;;;;;;;;9.00;99.90;;;;;;4855775;29;19932;-73
2022/12/31 06:23:26;;;;;;;;;;;9.00;99.90;;;;;;4840177;29;20377;-74
2022/12/31 06:25:52;;;;;;;;;;;9.00;99.90;;;;;;4854980;29;19924;-74
2022/12/31 06:28:17;;;;;;;;;;;9.00;99.90;;;;;;4824769;29;19975;-74
2022/12/31 06:30:43;;;;;;;;;;;9.00;99.90;;;;;;4856867;29;19923;-74
2022/12/31 06:33:08;;;;;;;;;;;8.90;99.90;;;;;;4855186;29;19934;-74
2022/12/31 06:35:34;;;;;;;;;;;8.90;99.90;;;;;;4840159;29;19934;-74
2022/12/31 06:37:59;;;;;;;;;;;8.90;99.90;;;;;;4855379;29;19928;-74
2022/12/31 06:40:25;;;;;;;;;;;8.90;99.90;;;;;;4855199;29;20444;-74
2022/12/31 06:42:52;;;;;;;;;;;8.80;99.90;;;;;;4852044;29;19932;-74
2022/12/31 06:45:18;;;;;;;;;;;8.80;99.90;;;;;;4824529;29;19924;-74
2022/12/31 06:47:43;;;;;;;;;;;8.80;99.90;;;;;;4840897;29;20429;-73
2022/12/31 06:50:09;;;;;;;;;;;8.80;99.90;;;;;;4842608;29;19985;-73
2022/12/31 06:52:35;;;;;;;;;;;8.80;99.90;;;;;;4854580;29;19934;-73
2022/12/31 06:55:01;;;;;;;;;;;8.70;99.90;;;;;;4855281;29;20308;-73
2022/12/31 06:57:26;;;;;;;;;;;8.70;99.90;;;;;;4855079;29;19939;-73
2022/12/31 06:59:52;;;;;;;;;;;8.70;99.90;;;;;;4858836;29;19956;-73
2022/12/31 07:02:33;;;;;;;;;;;8.70;99.90;;;;;;4858622;29;19932;-73
2022/12/31 07:05:05;;;;;;;;;;;8.60;99.90;;;;;;4858908;29;19979;-74
2022/12/31 07:07:33;;;;;;;;;;;8.60;99.90;;;;;;4843733;29;20308;-74
2022/12/31 07:10:04;;;;;;;;;;;8.60;99.90;;;;;;4856173;29;19924;-74
2022/12/31 07:12:29;;;;;;;;;;;8.70;99.90;;;;;;4858594;29;20006;-74
2022/12/31 07:15:02;;;;;;;;;;;8.70;99.90;;;;;;4845033;29;20006;-74
2022/12/31 07:17:28;;;;;;;;;;;8.70;99.90;;;;;;4862613;29;19948;-74
2022/12/31 07:20:04;;;;;;;;;;;8.70;99.90;;;;;;4841910;29;19927;-74
2022/12/31 07:22:29;;;;;;;;;;;8.70;99.90;;;;;;4841295;29;19932;-74
2022/12/31 07:24:55;;;;;;;;;;;8.70;99.90;;;;;;4843054;29;19935;-74
2022/12/31 07:27:27;;;;;;;;;;;8.70;99.90;;;;;;4855420;29;20004;-74
2022/12/31 07:29:52;;;;;;;;;;;8.70;99.90;;;;;;4858252;29;19927;-75
2022/12/31 07:32:36;;;;;;;;;;;8.80;99.90;;;;;;4858349;29;19935;-74
2022/12/31 07:35:08;;;;;;;;;;;8.80;99.90;;;;;;4843021;29;19934;-74
2022/12/31 07:37:52;;;;;;;;;;;8.80;99.90;;;;;;4846355;29;19927;-74
2022/12/31 07:40:21;;;;;;;;;;;8.90;99.90;;;;;;4858090;29;20015;-74
2022/12/31 07:42:50;;;;;;;;;;;8.90;99.90;;;;;;4857989;29;20247;-74
2022/12/31 07:45:39;;;;;;;;;;;8.90;99.90;;;;;;4842374;29;20540;-75
2022/12/31 07:48:13;;;;;;;;;;;9.00;99.90;;;;;;4832877;29;20104;-75
2022/12/31 07:50:38;;;;;;;;;;;9.00;99.90;;;;;;4858062;29;19928;-75
2022/12/31 07:53:04;;;;;;;;;;;9.00;99.90;;;;;;4842760;29;19931;-74
2022/12/31 07:55:29;;;;;;;;;;;9.00;99.90;;;;;;4860731;29;19928;-74
2022/12/31 07:58:02;;;;;;;;;;;9.00;99.90;;;;;;4842526;29;20292;-75
2022/12/31 08:00:28;;;;;;;;;;;9.00;99.90;;;;;;4858685;29;19923;-75
2022/12/31 08:03:14;;;;;;;;;;;9.10;99.90;;;;;;4857346;29;19931;-75
2022/12/31 08:05:47;;;;;;;;;;;9.20;99.90;;;;;;4857429;29;20439;-75
2022/12/31 08:08:31;;;;;;;;;;;9.20;99.90;;;;;;4856027;29;19932;-75
2022/12/31 08:11:16;;;;;;;;;;;9.30;99.90;;;;;;4842239;29;19951;-75
2022/12/31 08:13:41;;;;;;;;;;;9.40;99.90;;;;;;4861265;29;19959;-75
2022/12/31 08:16:11;;;;;;;;;;;9.60;99.90;;;;;;4853254;29;19980;-75
2022/12/31 08:18:36;;;;;;;;;;;9.70;99.90;;;;;;4838362;29;19932;-75
2022/12/31 08:21:05;;;;;;;;;;;9.70;99.90;;;;;;4845229;29;19932;-75
2022/12/31 08:23:38;;;;;;;;;;;9.80;99.90;;;;;;4850875;29;19992;-75
2022/12/31 08:26:16;;;;;;;;;;;9.90;99.90;;;;;;4828691;29;19967;-75
2022/12/31 08:28:42;;;;;;;;;;;9.90;99.90;;;;;;4852580;29;20270;-75
2022/12/31 08:31:10;;;;;;;;;;;10.00;99.90;;;;;;4857326;29;19942;-75
2022/12/31 08:33:54;;;;;;;;;;;10.10;99.90;;;;;;4840368;29;19928;-75
2022/12/31 08:36:35;;;;;;;;;;;10.10;99.90;;;;;;4857432;29;20007;-75
2022/12/31 08:39:04;;;;;;;;;;;10.20;99.90;;;;;;4841942;29;19989;-75
2022/12/31 08:41:40;;;;;;;;;;;10.20;99.90;;;;;;4842264;29;19930;-75
2022/12/31 08:44:24;;;;;;;;;;;10.30;99.90;;;;;;4855314;29;20364;-75
2022/12/31 08:46:58;;;;;;;;;;;10.30;99.90;;;;;;4852946;29;19931;-76
2022/12/31 08:49:30;;;;;;;;;;;10.40;99.90;;;;;;4854283;29;19963;-76
2022/12/31 08:51:56;;;;;;;;;;;10.40;99.90;;;;;;4856951;29;20386;-76
2022/12/31 08:54:22;;;;;;;;;;;10.40;99.90;;;;;;4856827;29;19928;-76
2022/12/31 08:56:56;;;;;;;;;;;10.40;99.90;;;;;;4841303;29;19935;-75
2022/12/31 08:59:34;;;;;;;;;;;10.50;99.90;;;;;;4856825;29;20424;-75
2022/12/31 09:02:18;;;;;;;;;;;10.50;99.90;;;;;;4855104;29;20293;-76
2022/12/31 09:04:52;;;;;;;;;;;10.50;99.90;;;;;;4852508;29;19990;-76
2022/12/31 09:07:22;;;;;;;;;;;10.50;99.90;;;;;;4861118;29;19928;-76
2022/12/31 09:09:56;;;;;;;;;;;10.50;99.90;;;;;;4841750;29;20034;-76
2022/12/31 09:12:25;;;;;;;;;;;10.50;99.90;;;;;;4841236;29;19932;-76
2022/12/31 09:15:10;;;;;;;;;;;10.50;99.90;;;;;;4837970;29;19966;-75
2022/12/31 09:17:35;;;;;;;;;;;10.40;99.90;;;;;;4856797;29;20733;-75
2022/12/31 09:20:01;;;;;;;;;;;10.40;99.90;;;;;;4856970;29;19928;-75
2022/12/31 09:22:27;;;;;;;;;;;10.40;99.90;;;;;;4856633;29;19935;-76
2022/12/31 09:24:53;;;;;;;;;;;10.40;99.90;;;;;;4842927;29;20625;-77
2022/12/31 09:27:38;;;;;;;;;;;10.40;99.90;;;;;;4857593;29;20019;-77
2022/12/31 09:30:06;;;;;;;;;;;10.40;99.90;;;;;;4857871;29;20041;-76
2022/12/31 09:32:35;;;;;;;;;;;10.40;99.90;;;;;;4858006;29;20380;-76
2022/12/31 09:35:02;;;;;;;;;;;10.40;99.90;;;;;;4857569;29;20141;-76
2022/12/31 09:37:40;;;;;;;;;;;10.40;99.90;;;;;;4842157;29;20045;-75
2022/12/31 09:40:24;;;;;;;;;;;10.40;99.90;;;;;;4854095;29;20471;-76
2022/12/31 09:42:50;;;;;;;;;;;10.40;99.90;;;;;;4855021;29;19930;-76
2022/12/31 09:45:39;;;;;;;;;;;10.50;99.90;;;;;;4842430;29;19927;-76
2022/12/31 09:48:07;;;;;;;;;;;10.50;99.90;;;;;;4839382;29;19938;-76
2022/12/31 09:50:36;;;;;;;;;;;10.60;99.90;;;;;;4856808;29;20394;-76
2022/12/31 09:53:05;;;;;;;;;;;10.60;99.90;;;;;;4841433;29;19927;-75
2022/12/31 09:55:52;;;;;;;;;;;10.60;99.90;;;;;;4877660;29;19924;-75
2022/12/31 09:58:44;;;;;;;;;;;10.70;99.90;;;;;;4857990;29;19924;-75
2022/12/31 10:01:29;;;;;;;;;;;10.80;99.90;;;;;;4822252;29;19939;-73
2022/12/31 10:03:54;;;;;;;;;;;10.90;99.90;;;;;;4864702;29;19928;-73
2022/12/31 10:06:23;;;;;;;;;;;11.00;99.90;;;;;;4838735;29;19999;-74
2022/12/31 10:08:56;;;;;;;;;;;11.00;99.90;;;;;;4839035;29;20034;-74
2022/12/31 10:11:28;;;;;;;;;;;11.10;99.90;;;;;;4854834;29;19942;-76
2022/12/31 10:13:59;;;;;;;;;;;11.10;99.90;;;;;;4854747;29;19924;-74
2022/12/31 10:16:40;;;;;;;;;;;11.10;99.90;;;;;;4853960;29;20070;-74
2022/12/31 10:19:11;;;;;;;;;;;11.20;99.90;;;;;;4833684;29;20017;-75
2022/12/31 10:22:01;;;;;;;;;;;11.30;99.90;;;;;;4852431;29;20445;-75
2022/12/31 10:24:32;;;;;;;;;;;11.30;99.90;;;;;;4838698;29;19931;-74
2022/12/31 10:26:58;;;;;;;;;;;11.30;99.90;;;;;;4849066;29;19931;-75
2022/12/31 10:29:23;;;;;;;;;;;11.30;99.90;;;;;;4851623;29;19930;-74
2022/12/31 10:31:58;;;;;;;;;;;11.40;99.90;;;;;;4853500;29;20452;-74
2022/12/31 10:34:30;;;;;;;;;;;11.40;99.90;;;;;;4853244;29;19927;-74
2022/12/31 10:37:04;;;;;;;;;;;11.50;99.90;;;;;;4854075;29;19930;-75
2022/12/31 10:39:37;;;;;;;;;;;11.50;99.90;;;;;;4862544;29;20015;-74
2022/12/31 10:42:18;;;;;;;;;;;11.60;99.90;;;;;;4836828;29;19935;-75
2022/12/31 10:44:56;;;;;;;;;;;11.60;99.90;;;;;;4854394;29;19924;-75
2022/12/31 10:47:33;;;;;;;;;;;11.70;99.90;;;;;;4853902;29;20396;-75
2022/12/31 10:50:14;;;;;;;;;;;11.70;99.90;;;;;;4853734;29;19923;-74
2022/12/31 10:52:52;;;;;;;;;;;11.70;99.90;;;;;;4851805;29;20297;-75
2022/12/31 10:55:36;;;;;;;;;;;11.70;99.90;;;;;;4849206;29;20369;-74
2022/12/31 10:58:21;;;;;;;;;;;11.70;99.90;;;;;;4853667;29;19936;-75
2022/12/31 11:00:55;;;;;;;;;;;11.70;99.90;;;;;;4840460;29;19924;-74
2022/12/31 11:03:29;;;;;;;;;;;11.80;99.90;;;;;;4855801;29;20769;-74
2022/12/31 11:06:07;;;;;;;;;;;11.80;99.90;;;;;;4855563;29;20012;-75
2022/12/31 11:08:45;;;;;;;;;;;11.80;99.90;;;;;;4850254;29;19975;-74
2022/12/31 11:11:17;;;;;;;;;;;11.90;99.90;;;;;;4856719;29;19939;-75
2022/12/31 11:14:01;;;;;;;;;;;11.90;99.90;;;;;;4849889;29;20387;-75
2022/12/31 11:16:42;;;;;;;;;;;11.90;99.90;;;;;;4856432;29;20421;-74
2022/12/31 11:19:34;;;;;;;;;;;11.90;99.90;;;;;;4861140;29;20453;-75
2022/12/31 11:22:06;;;;;;;;;;;12.00;99.90;;;;;;4829552;29;19924;-74
2022/12/31 11:24:50;;;;;;;;;;;12.00;99.90;;;;;;4839814;29;19970;-74
2022/12/31 11:27:34;;;;;;;;;;;12.00;99.90;;;;;;4849633;29;20448;-74
2022/12/31 11:29:59;;;;;;;;;;;12.00;99.90;;;;;;4853767;29;19923;-74
2022/12/31 11:32:31;;;;;;;;;;;12.00;99.90;;;;;;4837925;29;19928;-75
2022/12/31 11:35:00;;;;;;;;;;;12.10;99.90;;;;;;4839698;29;20369;-76
2022/12/31 11:37:28;;;;;;;;;;;12.10;99.90;;;;;;4856278;29;20015;-75
2022/12/31 11:39:54;;;;;;;;;;;12.10;99.90;;;;;;4856815;29;20419;-75
2022/12/31 11:42:33;;;;;;;;;;;12.20;99.90;;;;;;4851871;29;19955;-75
2022/12/31 11:45:01;;;;;;;;;;;12.20;99.90;;;;;;4860212;29;20020;-76
2022/12/31 11:47:46;;;;;;;;;;;12.20;99.90;;;;;;4860542;29;19946;-77
2022/12/31 11:50:12;;;;;;;;;;;12.20;99.90;;;;;;4843520;29;19959;-78
2022/12/31 11:52:48;;;;;;;;;;;12.20;99.90;;;;;;4860371;29;20014;-77
2022/12/31 11:55:29;;;;;;;;;;;12.20;99.90;;;;;;4843124;29;20370;-77
2022/12/31 11:57:57;;;;;;;;;;;12.20;99.90;;;;;;4859422;29;19931;-75
2022/12/31 12:00:24;;;;;;;;;;;12.20;99.90;;;;;;4862560;29;19935;-77
2022/12/31 12:02:57;;;;;;;;;;;12.20;99.90;;;;;;4795761;29;19924;-76
2022/12/31 12:05:23;;;;;;;;;;;12.20;99.90;;;;;;4841456;29;19935;-76
2022/12/31 12:07:49;;;;;;;;;;;12.10;99.90;;;;;;4841997;29;19928;-77
2022/12/31 12:10:27;;;;;;;;;;;12.10;99.90;;;;;;4835834;29;19967;-76
2022/12/31 12:12:53;;;;;;;;;;;12.10;99.90;;;;;;4843026;29;19924;-77
2022/12/31 12:15:28;;;;;;;;;;;12.10;99.90;;;;;;4827406;29;19924;-77
2022/12/31 12:18:00;;;;;;;;;;;12.10;99.90;;;;;;4840946;29;19936;-78
2022/12/31 12:20:36;;;;;;;;;;;12.00;99.90;;;;;;4844163;29;19932;-76
2022/12/31 12:23:23;;;;;;;;;;;12.00;99.90;;;;;;4839401;29;20027;-77
2022/12/31 12:25:49;;;;;;;;;;;12.00;99.90;;;;;;4822556;29;20008;-76
2022/12/31 12:28:25;;;;;;;;;;;11.90;99.90;;;;;;4839224;29;19936;-77
2022/12/31 12:30:56;;;;;;;;;;;11.90;99.90;;;;;;4821637;29;19938;-76
2022/12/31 12:33:22;;;;;;;;;;;11.90;99.90;;;;;;4829780;29;19954;-76
2022/12/31 12:35:47;;;;;;;;;;;11.80;99.90;;;;;;4836856;29;19928;-76
2022/12/31 12:38:15;;;;;;;;;;;11.80;99.90;;;;;;4824618;29;20297;-75
2022/12/31 12:40:50;;;;;;;;;;;11.90;99.90;;;;;;4836617;29;19995;-76
2022/12/31 12:43:25;;;;;;;;;;;11.90;99.90;;;;;;4823789;29;19924;-75
2022/12/31 12:45:57;;;;;;;;;;;11.80;99.90;;;;;;4841920;29;19935;-75
2022/12/31 12:48:39;;;;;;;;;;;11.80;99.90;;;;;;4842451;29;19986;-76
2022/12/31 12:51:12;;;;;;;;;;;11.90;99.90;;;;;;4840148;29;19984;-75
2022/12/31 12:53:48;;;;;;;;;;;11.80;99.90;;;;;;4838567;29;20442;-75
2022/12/31 12:56:26;;;;;;;;;;;11.80;99.90;;;;;;4837540;29;20059;-76
2022/12/31 12:58:53;;;;;;;;;;;11.80;99.90;;;;;;4836982;29;19954;-77
2022/12/31 13:01:29;;;;;;;;;;;11.80;99.90;;;;;;4854932;29;19991;-77
2022/12/31 13:04:01;;;;;;;;;;;11.80;99.90;;;;;;4854934;29;19938;-76
2022/12/31 13:06:49;;;;;;;;;;;11.80;99.90;;;;;;4854433;29;19932;-76
2022/12/31 13:09:31;;;;;;;;;;;11.80;99.90;;;;;;4836839;29;19924;-76
2022/12/31 13:12:15;;;;;;;;;;;11.80;99.90;;;;;;4829731;29;19924;-76
2022/12/31 13:14:43;;;;;;;;;;;11.80;99.90;;;;;;4821587;29;21746;-76
2022/12/31 13:17:12;;;;;;;;;;;11.70;99.90;;;;;;4838570;29;19936;-76
2022/12/31 13:19:38;;;;;;;;;;;11.70;99.90;;;;;;4840976;29;19928;-77
2022/12/31 13:22:03;;;;;;;;;;;11.70;99.90;;;;;;4825931;29;19972;-77
2022/12/31 13:24:32;;;;;;;;;;;11.70;99.90;;;;;;4821680;29;19930;-77
2022/12/31 13:27:11;;;;;;;;;;;11.60;99.90;;;;;;4838573;29;19928;-76
2022/12/31 13:29:38;;;;;;;;;;;11.70;99.90;;;;;;4821862;29;19928;-75
2022/12/31 13:32:05;;;;;;;;;;;11.70;99.90;;;;;;4842610;29;19924;-76
2022/12/31 13:34:38;;;;;;;;;;;11.60;99.90;;;;;;4823106;29;19924;-77
2022/12/31 13:37:17;;;;;;;;;;;11.60;99.90;;;;;;4838364;29;19924;-77
2022/12/31 13:39:43;;;;;;;;;;;11.50;99.90;;;;;;4850910;29;20058;-76
2022/12/31 13:42:25;;;;;;;;;;;11.50;99.90;;;;;;4836287;29;19932;-74
2022/12/31 13:44:58;;;;;;;;;;;11.50;99.90;;;;;;4830209;29;19932;-73
2022/12/31 13:47:28;;;;;;;;;;;11.50;99.90;;;;;;4836735;29;20390;-75
2022/12/31 13:50:20;;;;;;;;;;;11.50;99.90;;;;;;4835161;29;20373;-75
2022/12/31 13:52:55;;;;;;;;;;;11.60;99.90;;;;;;4833139;29;19980;-75
2022/12/31 13:55:24;;;;;;;;;;;11.70;99.90;;;;;;4836402;29;20027;-75
2022/12/31 13:57:52;;;;;;;;;;;11.70;99.90;;;;;;4820970;29;19943;-75
2022/12/31 14:00:35;;;;;;;;;;;11.70;99.90;;;;;;4836776;29;19928;-74
2022/12/31 14:03:19;;;;;;;;;;;11.70;99.90;;;;;;4835079;29;20674;-74
2022/12/31 14:05:55;;;;;;;;;;;11.70;99.90;;;;;;4821032;29;19932;-75
2022/12/31 14:08:20;;;;;;;;;;;11.70;99.90;;;;;;4836743;29;19984;-76
2022/12/31 14:10:46;;;;;;;;;;;11.70;99.90;;;;;;4836969;29;20326;-76
2022/12/31 14:13:24;;;;;;;;;;;11.70;99.90;;;;;;4842736;29;20104;-76
2022/12/31 14:16:05;;;;;;;;;;;11.70;99.90;;;;;;4818878;29;19936;-75
2022/12/31 14:18:34;;;;;;;;;;;11.60;99.90;;;;;;4838548;29;20243;-76
2022/12/31 14:21:13;;;;;;;;;;;11.70;99.90;;;;;;4820918;29;20454;-76
2022/12/31 14:23:41;;;;;;;;;;;11.60;99.90;;;;;;4817485;29;19999;-76
2022/12/31 14:26:20;;;;;;;;;;;11.70;99.90;;;;;;4845838;29;19924;-75
2022/12/31 14:28:55;;;;;;;;;;;11.70;99.90;;;;;;4820865;29;20286;-76
2022/12/31 14:31:25;;;;;;;;;;;11.70;99.90;;;;;;4835554;29;19934;-76
2022/12/31 14:33:56;;;;;;;;;;;11.70;99.90;;;;;;4838338;29;20046;-76
2022/12/31 14:36:41;;;;;;;;;;;11.70;99.90;;;;;;4835178;29;19935;-75
2022/12/31 14:39:28;;;;;;;;;;;11.70;99.90;;;;;;4834183;29;19924;-76
2022/12/31 14:42:03;;;;;;;;;;;11.70;99.90;;;;;;4836505;29;19935;-76
2022/12/31 14:44:32;;;;;;;;;;;11.70;99.90;;;;;;4836985;29;20269;-76
2022/12/31 14:47:16;;;;;;;;;;;11.60;99.90;;;;;;4822349;29;19988;-76
2022/12/31 14:49:51;;;;;;;;;;;11.60;99.90;;;;;;4821777;29;19924;-75
2022/12/31 14:52:21;;;;;;;;;;;11.50;99.90;;;;;;4838754;29;20018;-77
2022/12/31 14:54:56;;;;;;;;;;;11.50;99.90;;;;;;4820742;29;19930;-76
2022/12/31 14:57:23;;;;;;;;;;;11.50;99.90;;;;;;4838343;29;19985;-76
2022/12/31 14:59:56;;;;;;;;;;;11.50;99.90;;;;;;4837983;29;20424;-77